Accueil
METAR-TAF:

METAR-TAF

Aéroports :

Plate-forme pétrolière

Ekofisk, Norvège

latitude: 56-33N, longitude: 003-15E, altitude: 3 m

Observation

Le bulletin a été fait il y a 21 minutes, à 15:20 UTC
Vent 29 kt de sud
Température 7°C
Humidité 87%
Pression 1002 hPa
Visibilité: 9000 m
Nuages épars à une hauteur de 1000 ft
Nuages fragmentés à une hauteur de 2000 ft

METAR: ENLE 261520Z 18029KT 9000 SCT010 BKN020 07/05 Q1002 W08/S4

Heure: 16:41 (15:41 UTC)

Prévision

Le bulletin a été fait il y a 1 heure et 41 minutes, à 14:00 UTC
Prévision valable du 26 à 15 UTC au 26 à 24 UTC
Vent 30 kt de sud
Visibilité 10 km ou plus
Quelques nuages à une hauteur de 600 ft
Nuages fragmentés à une hauteur de 1200 ft
Temporairement
du 26 à 15 UTC au 26 à 24 UTC
Visibilité: 4000 m
Nuages fragmentés à une hauteur de 700 ft
faible bruine, brume

TAF: ENLE 261400Z 2615/2624 19030KT 9999 FEW006 BKN012 TEMPO 2615/2624 4000 -DZ BR BKN007

Observations et prévisions météorologiques de plus de 4000 aéroports (messages METAR et TAF).

Les stations disponibles sont représentées par des disques jaunes et rouges sur la carte.

Passer la souris dessus pour voir le nom de la station.

Cliquer dessus pour voir les observations et prévisions météorologiques.

Pour changer de carte: cliquez sur les boutons verts avec une croix noire pour zoomer, sur le bouton vert avec un tiret pour effectuer un zoom arrière, ou sur les flèches vertes pour les cartes adjacentes.


METAR-TAF: